createdAt,value
2017-06-24T00:01:14.862Z,62.80
2017-06-24T00:03:42.373Z,62.90
2017-06-24T00:06:09.878Z,63.40
2017-06-24T00:08:37.679Z,62.90
2017-06-24T00:11:05.199Z,63.40
2017-06-24T00:13:32.703Z,63.50
2017-06-24T00:16:00.503Z,63.60
2017-06-24T00:18:28.015Z,63.30
2017-06-24T00:20:55.531Z,63.50
2017-06-24T00:23:23.107Z,63.50
2017-06-24T00:25:50.667Z,63.00
2017-06-24T00:28:18.443Z,62.60
2017-06-24T00:30:46.346Z,62.50
2017-06-24T00:33:13.875Z,62.50
2017-06-24T00:35:41.403Z,62.50
2017-06-24T00:38:09.343Z,62.50
2017-06-24T00:40:36.928Z,62.70
2017-06-24T00:43:04.479Z,63.50
2017-06-24T00:45:32.096Z,64.20
2017-06-24T00:47:59.599Z,64.70
2017-06-24T00:50:27.191Z,65.60
2017-06-24T00:52:54.792Z,65.90
2017-06-24T00:55:22.315Z,66.50
2017-06-24T00:57:49.827Z,66.50
2017-06-24T01:00:17.543Z,66.70
2017-06-24T01:02:45.054Z,67.40
2017-06-24T01:05:12.568Z,67.60
2017-06-24T01:07:40.170Z,68.10
2017-06-24T01:10:07.831Z,68.70
2017-06-24T01:12:35.395Z,69.30
2017-06-24T01:15:03.223Z,69.40
2017-06-24T01:17:30.731Z,69.30
2017-06-24T01:19:58.243Z,69.60
2017-06-24T01:22:25.872Z,69.60
2017-06-24T01:24:53.386Z,70.40
2017-06-24T01:27:20.898Z,70.50
2017-06-24T01:29:48.597Z,70.80
2017-06-24T01:32:16.107Z,71.00
2017-06-24T01:34:43.778Z,71.00
2017-06-24T01:37:11.626Z,70.90
2017-06-24T01:39:39.229Z,71.10
2017-06-24T01:42:06.737Z,71.00
2017-06-24T01:44:34.666Z,70.90
2017-06-24T01:47:02.226Z,70.50
2017-06-24T01:49:29.870Z,70.80
2017-06-24T01:51:57.448Z,70.30
2017-06-24T01:54:25.139Z,69.70
2017-06-24T01:56:52.696Z,69.80
2017-06-24T01:59:20.276Z,69.70
2017-06-24T02:01:47.787Z,69.30
2017-06-24T02:04:15.343Z,69.30
2017-06-24T02:06:42.932Z,69.00
2017-06-24T02:09:10.459Z,68.60
2017-06-24T02:11:37.979Z,68.10
2017-06-24T02:14:05.839Z,67.70
2017-06-24T02:16:33.373Z,67.80
2017-06-24T02:19:01.044Z,67.50
2017-06-24T02:21:28.615Z,67.70
2017-06-24T02:23:56.162Z,67.00
2017-06-24T02:26:23.679Z,66.70
2017-06-24T02:28:51.302Z,66.40
2017-06-24T02:31:18.843Z,66.00
2017-06-24T02:33:46.355Z,65.90
2017-06-24T02:36:14.159Z,65.50
2017-06-24T02:38:41.667Z,65.20
2017-06-24T02:41:09.173Z,65.40
2017-06-24T02:43:37.003Z,65.10
2017-06-24T02:46:04.669Z,65.80
2017-06-24T02:48:32.231Z,66.00
2017-06-24T02:50:59.840Z,66.00
2017-06-24T02:53:27.456Z,65.60
2017-06-24T02:55:54.989Z,65.50
2017-06-24T02:58:22.567Z,65.30
2017-06-24T03:00:50.081Z,65.80
2017-06-24T03:03:17.668Z,65.80
2017-06-24T03:05:45.227Z,65.80
2017-06-24T03:08:12.951Z,65.90
2017-06-24T03:10:40.524Z,66.80
2017-06-24T03:13:08.364Z,67.60
2017-06-24T03:15:35.867Z,67.50
2017-06-24T03:18:03.463Z,67.90
2017-06-24T03:20:31.028Z,68.00
2017-06-24T03:22:58.568Z,68.10
2017-06-24T03:25:26.103Z,68.50
2017-06-24T03:27:53.657Z,68.80
2017-06-24T03:30:21.163Z,68.50
2017-06-24T03:32:48.683Z,69.00
2017-06-24T03:35:16.702Z,69.00
2017-06-24T03:37:44.231Z,69.20
2017-06-24T03:40:11.743Z,68.80
2017-06-24T03:42:39.310Z,68.50
2017-06-24T03:45:07.273Z,68.80
2017-06-24T03:47:34.819Z,68.70
2017-06-24T03:50:02.643Z,68.30
2017-06-24T03:52:30.146Z,68.40
2017-06-24T03:54:57.651Z,68.70
2017-06-24T03:57:25.470Z,68.10
2017-06-24T03:59:52.984Z,67.90
2017-06-24T04:02:20.503Z,67.80
2017-06-24T04:04:48.543Z,67.50
2017-06-24T04:07:16.092Z,67.70
2017-06-24T04:09:43.612Z,67.80
2017-06-24T04:12:11.184Z,68.20
2017-06-24T04:14:38.691Z,68.50
2017-06-24T04:17:06.239Z,68.50
2017-06-24T04:19:34.240Z,68.40
2017-06-24T04:22:01.747Z,68.40
2017-06-24T04:24:29.274Z,68.60
2017-06-24T04:26:56.841Z,68.40
2017-06-24T04:29:24.414Z,68.00
2017-06-24T04:31:51.915Z,67.30
2017-06-24T04:34:19.752Z,67.40
2017-06-24T04:36:47.311Z,67.40
2017-06-24T04:39:15.404Z,67.30
2017-06-24T04:41:43.217Z,67.60
2017-06-24T04:44:10.827Z,67.30
2017-06-24T04:46:38.341Z,66.40
2017-06-24T04:49:05.979Z,66.20
2017-06-24T04:51:33.483Z,66.00
2017-06-24T04:54:00.992Z,66.40
2017-06-24T04:56:28.845Z,66.20
2017-06-24T04:58:56.391Z,66.10
2017-06-24T05:01:23.899Z,66.50
2017-06-24T05:03:51.484Z,65.30
2017-06-24T05:06:18.995Z,65.00
2017-06-24T05:08:46.499Z,64.60
2017-06-24T05:11:14.111Z,64.50
2017-06-24T05:13:42.282Z,64.40
2017-06-24T05:16:09.844Z,63.80
2017-06-24T05:18:37.404Z,63.80
2017-06-24T05:21:05.791Z,62.20
2017-06-24T05:23:33.411Z,61.20
2017-06-24T05:26:00.940Z,60.40
2017-06-24T05:28:28.775Z,59.40
2017-06-24T05:30:56.287Z,58.90
2017-06-24T05:33:23.793Z,56.70
2017-06-24T05:35:52.512Z,55.10
2017-06-24T05:38:20.033Z,54.70
2017-06-24T05:40:47.579Z,54.50
2017-06-24T05:43:15.203Z,54.00
2017-06-24T05:45:42.715Z,53.60
2017-06-24T05:48:10.219Z,54.50
2017-06-24T05:50:38.032Z,54.50
2017-06-24T05:53:05.565Z,55.10
2017-06-24T05:55:33.070Z,54.20
2017-06-24T05:58:00.878Z,54.60
2017-06-24T06:00:28.389Z,54.00
2017-06-24T06:02:55.995Z,53.70
2017-06-24T06:05:23.547Z,53.30
2017-06-24T06:07:51.067Z,52.10
2017-06-24T06:10:18.574Z,51.90
2017-06-24T06:12:46.477Z,50.60
2017-06-24T06:15:15.135Z,48.80
2017-06-24T06:17:42.646Z,48.10
2017-06-24T06:20:10.348Z,48.10
2017-06-24T06:22:37.862Z,48.90
2017-06-24T06:25:05.575Z,47.70
2017-06-24T06:27:33.376Z,46.90
2017-06-24T06:30:00.912Z,46.40
2017-06-24T06:32:28.423Z,47.10
2017-06-24T06:34:56.296Z,48.30
2017-06-24T06:37:23.798Z,48.10
2017-06-24T06:39:51.320Z,48.30
2017-06-24T06:42:19.177Z,47.80
2017-06-24T06:44:46.736Z,47.70
2017-06-24T06:47:14.403Z,48.60
2017-06-24T06:49:42.407Z,48.20
2017-06-24T06:52:10.261Z,48.70
2017-06-24T06:54:37.855Z,47.60
2017-06-24T06:57:05.862Z,48.40
2017-06-24T06:59:33.819Z,47.80
2017-06-24T07:02:01.837Z,49.20
2017-06-24T07:04:29.887Z,49.60
2017-06-24T07:06:57.605Z,47.90
2017-06-24T07:09:25.223Z,47.70
2017-06-24T07:11:52.763Z,46.50
2017-06-24T07:14:20.279Z,45.90
2017-06-24T07:16:47.846Z,42.60
2017-06-24T07:19:15.423Z,41.60
2017-06-24T07:21:42.986Z,40.70
2017-06-24T07:24:10.495Z,39.10
2017-06-24T07:26:38.051Z,39.60
2017-06-24T07:29:05.562Z,37.90
2017-06-24T07:31:33.140Z,36.80
2017-06-24T07:34:00.954Z,37.30
2017-06-24T07:36:28.543Z,38.50
2017-06-24T07:38:56.097Z,40.00
2017-06-24T07:41:23.604Z,40.20
2017-06-24T07:43:51.400Z,39.90
2017-06-24T07:46:19.123Z,40.80
2017-06-24T07:48:46.656Z,39.70
2017-06-24T07:51:14.207Z,41.70
2017-06-24T07:53:41.715Z,42.10
2017-06-24T07:56:09.219Z,40.80
2017-06-24T07:58:36.826Z,39.60
2017-06-24T08:01:04.341Z,38.20
2017-06-24T08:03:31.861Z,36.60
2017-06-24T08:05:59.656Z,36.10
2017-06-24T08:08:27.191Z,36.70
2017-06-24T08:10:54.700Z,37.00
2017-06-24T08:13:22.507Z,37.70
2017-06-24T08:15:50.188Z,36.60
2017-06-24T08:18:17.741Z,37.50
2017-06-24T08:20:45.407Z,37.20
2017-06-24T08:23:12.908Z,37.50
2017-06-24T08:25:40.512Z,35.80
2017-06-24T08:28:08.133Z,36.60
2017-06-24T08:30:35.769Z,37.50
2017-06-24T08:33:03.284Z,35.80
2017-06-24T08:35:31.129Z,35.80
2017-06-24T08:37:58.643Z,35.00
2017-06-24T08:40:26.167Z,35.00
2017-06-24T08:42:53.972Z,34.70
2017-06-24T08:45:21.478Z,34.40
2017-06-24T08:47:48.995Z,37.10
2017-06-24T08:50:16.619Z,39.30
2017-06-24T08:52:45.356Z,38.60
2017-06-24T08:55:13.206Z,37.80
2017-06-24T08:57:41.714Z,35.60
2017-06-24T09:00:09.864Z,37.80
2017-06-24T09:02:37.537Z,35.50
2017-06-24T09:05:05.074Z,34.30
2017-06-24T09:07:33.189Z,33.00
2017-06-24T09:10:00.587Z,32.80
2017-06-24T09:12:28.703Z,31.60
2017-06-24T09:14:56.235Z,31.20
2017-06-24T09:17:24.663Z,32.80
2017-06-24T09:19:52.328Z,34.00
2017-06-24T09:22:19.891Z,34.50
2017-06-24T09:24:47.699Z,33.00
2017-06-24T09:27:15.608Z,31.10
2017-06-24T09:29:43.128Z,31.70
2017-06-24T09:32:10.833Z,31.70
2017-06-24T09:34:38.389Z,31.10
2017-06-24T09:37:05.918Z,31.10
2017-06-24T09:39:33.573Z,32.50
2017-06-24T09:42:01.104Z,31.90
2017-06-24T09:44:28.607Z,32.90
2017-06-24T09:46:56.251Z,31.40
2017-06-24T09:49:23.757Z,30.40
2017-06-24T09:51:51.298Z,29.20
2017-06-24T09:54:19.245Z,27.90
2017-06-24T09:56:46.791Z,29.20
2017-06-24T09:59:14.296Z,29.10
2017-06-24T10:01:41.863Z,29.10
2017-06-24T10:04:09.411Z,28.80
2017-06-24T10:06:36.914Z,28.00
2017-06-24T10:09:04.511Z,28.30
2017-06-24T10:11:32.186Z,29.80
2017-06-24T10:13:59.710Z,30.10
2017-06-24T10:16:27.751Z,30.20
2017-06-24T10:18:55.344Z,29.80
2017-06-24T10:21:22.847Z,30.60
2017-06-24T10:23:50.415Z,30.80
2017-06-24T10:26:17.951Z,31.90
2017-06-24T10:28:45.468Z,29.80
2017-06-24T10:31:13.279Z,30.40
2017-06-24T10:33:40.775Z,31.20
2017-06-24T10:36:08.401Z,29.40
2017-06-24T10:38:35.956Z,29.30
2017-06-24T10:41:03.495Z,29.30
2017-06-24T10:43:31.002Z,29.20
2017-06-24T10:45:58.622Z,27.70
2017-06-24T10:48:26.242Z,28.50
2017-06-24T10:50:53.763Z,28.50
2017-06-24T10:53:21.567Z,27.20
2017-06-24T10:55:49.085Z,28.00
2017-06-24T10:58:16.587Z,28.20
2017-06-24T11:00:44.582Z,29.00
2017-06-24T11:03:12.371Z,27.70
2017-06-24T11:05:39.931Z,27.00
2017-06-24T11:08:07.831Z,25.90
2017-06-24T11:10:35.336Z,24.40
2017-06-24T11:13:02.939Z,25.00
2017-06-24T11:15:30.728Z,26.70
2017-06-24T11:17:58.243Z,28.40
2017-06-24T11:20:25.951Z,27.80
2017-06-24T11:22:53.519Z,26.70
2017-06-24T11:25:21.023Z,26.10
2017-06-24T11:27:48.530Z,25.40
2017-06-24T11:30:16.168Z,27.50
2017-06-24T11:32:43.682Z,27.90
2017-06-24T11:35:11.243Z,27.00
2017-06-24T11:37:38.827Z,26.70
2017-06-24T11:40:06.427Z,27.00
2017-06-24T11:42:33.943Z,28.20
2017-06-24T11:45:01.568Z,27.60
2017-06-24T11:47:29.085Z,27.90
2017-06-24T11:49:56.679Z,27.50
2017-06-24T11:52:24.252Z,27.50
2017-06-24T11:54:51.771Z,27.20
2017-06-24T11:57:19.395Z,28.20
2017-06-24T11:59:46.975Z,28.00
2017-06-24T12:02:14.508Z,28.70
2017-06-24T12:04:42.014Z,28.80
2017-06-24T12:07:09.817Z,29.80
2017-06-24T12:09:37.348Z,30.00
2017-06-24T12:12:04.988Z,30.70
2017-06-24T12:14:32.901Z,30.60
2017-06-24T12:17:00.420Z,29.30
2017-06-24T12:19:27.933Z,29.00
2017-06-24T12:21:55.630Z,30.10
2017-06-24T12:24:23.152Z,31.70
2017-06-24T12:26:50.659Z,31.60
2017-06-24T12:29:18.229Z,32.30
2017-06-24T12:31:45.739Z,33.00
2017-06-24T12:34:13.322Z,33.70
2017-06-24T12:36:40.905Z,32.80
2017-06-24T12:39:08.437Z,31.60
2017-06-24T12:41:36.007Z,32.10
2017-06-24T12:44:03.859Z,30.10
2017-06-24T12:46:32.338Z,29.60
2017-06-24T12:48:59.853Z,29.10
2017-06-24T12:51:27.411Z,29.20
2017-06-24T12:53:56.479Z,30.30
2017-06-24T12:56:24.444Z,30.90
2017-06-24T12:58:52.718Z,30.20
2017-06-24T13:01:20.368Z,29.50
2017-06-24T13:03:47.888Z,30.00
2017-06-24T13:06:15.448Z,30.30
2017-06-24T13:08:43.015Z,30.70
2017-06-24T13:11:10.554Z,30.20
2017-06-24T13:13:38.576Z,29.70
2017-06-24T13:16:06.419Z,29.70
2017-06-24T13:18:33.922Z,29.00
2017-06-24T13:21:01.474Z,29.10
2017-06-24T13:23:29.036Z,28.20
2017-06-24T13:25:56.595Z,27.60
2017-06-24T13:28:24.865Z,27.60
2017-06-24T13:30:52.476Z,27.40
2017-06-24T13:33:20.006Z,26.50
2017-06-24T13:35:47.580Z,26.20
2017-06-24T13:38:15.474Z,27.60
2017-06-24T13:40:43.011Z,28.10
2017-06-24T13:43:10.851Z,28.70
2017-06-24T13:45:39.405Z,28.50
2017-06-24T13:48:06.917Z,28.00
2017-06-24T13:50:34.445Z,27.30
2017-06-24T13:53:02.099Z,27.60
2017-06-24T13:55:29.679Z,28.00
2017-06-24T13:57:57.224Z,27.80
2017-06-24T14:00:24.786Z,27.50
2017-06-24T14:02:52.408Z,27.60
2017-06-24T14:05:19.936Z,27.80
2017-06-24T14:07:47.509Z,28.00
2017-06-24T14:10:15.012Z,27.90
2017-06-24T14:12:42.519Z,28.50
2017-06-24T14:15:10.127Z,28.50
2017-06-24T14:17:37.645Z,29.80
2017-06-24T14:20:05.163Z,29.50
2017-06-24T14:22:32.910Z,29.50
2017-06-24T14:25:00.447Z,29.30
2017-06-24T14:27:27.955Z,28.60
2017-06-24T14:29:55.763Z,27.70
2017-06-24T14:32:23.279Z,27.70
2017-06-24T14:34:50.818Z,28.10
2017-06-24T14:37:18.630Z,28.20
2017-06-24T14:39:46.139Z,28.10
2017-06-24T14:42:13.647Z,28.60
2017-06-24T14:44:41.559Z,28.70
2017-06-24T14:47:09.261Z,28.70
2017-06-24T14:49:36.768Z,28.80
2017-06-24T14:52:04.615Z,29.20
2017-06-24T14:54:32.175Z,29.30
2017-06-24T14:56:59.771Z,29.80
2017-06-24T14:59:27.333Z,30.00
2017-06-24T15:01:54.867Z,29.90
2017-06-24T15:04:22.376Z,30.10
2017-06-24T15:06:50.052Z,30.80
2017-06-24T15:09:17.593Z,31.10
2017-06-24T15:11:45.120Z,32.00
2017-06-24T15:14:12.791Z,31.70
2017-06-24T15:16:40.287Z,31.20
2017-06-24T15:19:07.787Z,31.60
2017-06-24T15:21:35.371Z,32.40
2017-06-24T15:24:02.921Z,32.90
2017-06-24T15:26:30.424Z,31.70
2017-06-24T15:28:58.063Z,31.50
2017-06-24T15:31:25.331Z,31.60
2017-06-24T15:33:52.838Z,32.20
2017-06-24T15:36:20.731Z,30.90
2017-06-24T15:38:48.986Z,30.90
2017-06-24T15:41:16.523Z,31.60
2017-06-24T15:43:44.259Z,33.00
2017-06-24T15:46:12.175Z,32.90
2017-06-24T15:48:40.063Z,32.50
2017-06-24T15:51:07.717Z,33.10
2017-06-24T15:53:35.373Z,33.10
2017-06-24T15:56:02.988Z,32.80
2017-06-24T15:58:30.639Z,33.20
2017-06-24T16:00:58.733Z,34.50
2017-06-24T16:03:26.331Z,33.80
2017-06-24T16:05:53.912Z,33.50
2017-06-24T16:08:21.608Z,34.10
2017-06-24T16:10:49.249Z,34.30
2017-06-24T16:13:17.286Z,35.00
2017-06-24T16:15:46.019Z,36.40
2017-06-24T16:18:13.535Z,37.10
2017-06-24T16:20:42.209Z,37.50
2017-06-24T16:23:09.811Z,37.80
2017-06-24T16:25:37.600Z,38.30
2017-06-24T16:28:05.217Z,37.40
2017-06-24T16:30:32.807Z,36.60
2017-06-24T16:33:00.463Z,36.60
2017-06-24T16:35:27.983Z,37.90
2017-06-24T16:37:55.710Z,38.90
2017-06-24T16:40:23.284Z,39.50
2017-06-24T16:42:50.795Z,39.00
2017-06-24T16:45:18.647Z,39.30
2017-06-24T16:47:46.155Z,39.30
2017-06-24T16:50:13.663Z,39.20
2017-06-24T16:52:41.575Z,38.70
2017-06-24T16:55:09.220Z,38.70
2017-06-24T16:57:36.739Z,39.40
2017-06-24T17:00:04.402Z,39.40
2017-06-24T17:02:31.911Z,39.30
2017-06-24T17:04:59.459Z,38.40
2017-06-24T17:07:27.347Z,38.40
2017-06-24T17:09:55.252Z,38.30
2017-06-24T17:12:22.763Z,38.80
2017-06-24T17:14:51.186Z,38.50
2017-06-24T17:17:18.800Z,38.10
2017-06-24T17:19:46.299Z,38.10
2017-06-24T17:22:15.250Z,39.00
2017-06-24T17:24:42.977Z,39.80
2017-06-24T17:27:10.503Z,40.00
2017-06-24T17:29:38.127Z,39.90
2017-06-24T17:32:05.635Z,40.80
2017-06-24T17:34:33.192Z,40.50
2017-06-24T17:37:01.027Z,40.10
2017-06-24T17:39:28.544Z,39.00
2017-06-24T17:41:56.059Z,38.90
2017-06-24T17:44:23.708Z,38.80
2017-06-24T17:46:51.231Z,39.60
2017-06-24T17:49:18.748Z,39.00
2017-06-24T17:51:46.312Z,39.00
2017-06-24T17:54:13.936Z,38.70
2017-06-24T17:56:41.499Z,38.60
2017-06-24T17:59:09.055Z,39.10
2017-06-24T18:01:36.592Z,39.30
2017-06-24T18:04:04.163Z,39.40
2017-06-24T18:06:32.027Z,39.70
2017-06-24T18:08:59.602Z,40.00
2017-06-24T18:11:27.131Z,40.10
2017-06-24T18:13:54.715Z,40.40
2017-06-24T18:16:22.288Z,40.60
2017-06-24T18:18:49.832Z,40.50
2017-06-24T18:21:18.091Z,40.50
2017-06-24T18:23:45.609Z,40.30
2017-06-24T18:26:13.149Z,40.80
2017-06-24T18:28:40.958Z,40.80
2017-06-24T18:31:08.722Z,40.60
2017-06-24T18:33:36.235Z,40.70
2017-06-24T18:36:04.498Z,41.00
2017-06-24T18:38:32.065Z,41.30
2017-06-24T18:41:00.336Z,41.70
2017-06-24T18:43:28.415Z,42.10
2017-06-24T18:45:56.033Z,42.20
2017-06-24T18:48:23.944Z,42.30
2017-06-24T18:50:51.467Z,42.50
2017-06-24T18:53:18.986Z,42.90
2017-06-24T18:55:46.596Z,43.10
2017-06-24T18:58:14.120Z,43.40
2017-06-24T19:00:41.669Z,43.70
2017-06-24T19:03:09.479Z,44.10
2017-06-24T19:05:36.991Z,44.60
2017-06-24T19:08:04.552Z,45.10
2017-06-24T19:10:32.476Z,45.20
2017-06-24T19:12:59.992Z,45.70
2017-06-24T19:15:27.567Z,46.20
2017-06-24T19:17:55.481Z,46.00
2017-06-24T19:20:23.527Z,46.00
2017-06-24T19:22:51.093Z,46.50
2017-06-24T19:25:18.663Z,47.70
2017-06-24T19:27:46.175Z,47.00
2017-06-24T19:30:13.793Z,47.30
2017-06-24T19:32:41.368Z,47.70
2017-06-24T19:35:08.920Z,47.70
2017-06-24T19:37:36.447Z,47.90
2017-06-24T19:40:04.056Z,48.10
2017-06-24T19:42:31.592Z,48.40
2017-06-24T19:44:59.107Z,48.60
2017-06-24T19:47:27.032Z,48.70
2017-06-24T19:49:54.730Z,48.90
2017-06-24T19:52:22.249Z,49.60
2017-06-24T19:54:49.844Z,49.20
2017-06-24T19:57:17.451Z,50.10
2017-06-24T19:59:44.973Z,50.70
2017-06-24T20:02:12.547Z,50.90
2017-06-24T20:04:40.057Z,51.60
2017-06-24T20:07:07.567Z,50.70
2017-06-24T20:09:35.199Z,50.70
2017-06-24T20:12:02.715Z,50.90
2017-06-24T20:14:30.254Z,50.60
2017-06-24T20:16:58.130Z,51.50
2017-06-24T20:19:25.731Z,51.40
2017-06-24T20:21:53.397Z,52.60
2017-06-24T20:24:20.924Z,52.00
2017-06-24T20:26:49.380Z,51.80
2017-06-24T20:29:16.955Z,51.90
2017-06-24T20:31:44.475Z,53.10
2017-06-24T20:34:12.503Z,52.20
2017-06-24T20:36:40.109Z,56.00
2017-06-24T20:39:07.616Z,53.30
2017-06-24T20:41:35.127Z,54.30
2017-06-24T20:44:02.688Z,54.50
2017-06-24T20:46:30.228Z,54.10
2017-06-24T20:48:58.176Z,53.70
2017-06-24T20:51:26.360Z,53.70
2017-06-24T20:53:53.950Z,53.90
2017-06-24T20:56:21.461Z,52.90
2017-06-24T20:58:50.242Z,52.50
2017-06-24T21:01:18.728Z,52.80
2017-06-24T21:03:46.235Z,53.40
2017-06-24T21:06:16.946Z,54.50
2017-06-24T21:08:44.455Z,54.10
2017-06-24T21:11:12.620Z,54.30
2017-06-24T21:13:40.597Z,55.80
2017-06-24T21:16:08.116Z,54.60
2017-06-24T21:18:36.005Z,53.70
2017-06-24T21:21:03.797Z,53.50
2017-06-24T21:23:31.563Z,53.70
2017-06-24T21:25:59.484Z,53.90
2017-06-24T21:28:27.327Z,53.90
2017-06-24T21:30:54.867Z,54.70
2017-06-24T21:33:23.035Z,54.90
2017-06-24T21:35:50.607Z,54.30
2017-06-24T21:38:18.133Z,54.50
2017-06-24T21:40:45.705Z,55.00
2017-06-24T21:43:13.279Z,55.00
2017-06-24T21:45:40.807Z,55.40
2017-06-24T21:48:08.589Z,56.40
2017-06-24T21:50:36.120Z,56.50
2017-06-24T21:53:03.652Z,56.70
2017-06-24T21:55:31.569Z,57.00
2017-06-24T21:57:59.257Z,57.00
2017-06-24T22:00:26.867Z,58.00
2017-06-24T22:02:54.723Z,58.60
2017-06-24T22:05:22.287Z,58.60
2017-06-24T22:07:49.985Z,59.20
2017-06-24T22:10:17.555Z,58.80
2017-06-24T22:12:45.756Z,59.30
2017-06-24T22:15:13.615Z,59.40
2017-06-24T22:17:41.276Z,60.00
2017-06-24T22:20:09.026Z,61.10
2017-06-24T22:22:36.783Z,61.30
2017-06-24T22:25:04.731Z,61.50
2017-06-24T22:27:32.534Z,61.60
2017-06-24T22:30:00.239Z,62.30
2017-06-24T22:32:28.004Z,62.50
2017-06-24T22:34:55.735Z,63.10
2017-06-24T22:37:23.447Z,62.80
2017-06-24T22:39:51.204Z,63.00
2017-06-24T22:42:19.040Z,63.20
2017-06-24T22:44:46.726Z,62.90
2017-06-24T22:47:14.435Z,64.20
2017-06-24T22:49:42.154Z,64.10
2017-06-24T22:52:09.800Z,64.80
2017-06-24T22:54:37.774Z,64.50
2017-06-24T22:57:05.496Z,64.30
2017-06-24T22:59:33.131Z,64.30
2017-06-24T23:02:00.824Z,64.80
2017-06-24T23:04:28.506Z,65.00
2017-06-24T23:06:56.049Z,65.30
2017-06-24T23:09:24.022Z,65.30
2017-06-24T23:11:51.713Z,65.40
2017-06-24T23:14:19.287Z,64.80
2017-06-24T23:16:46.972Z,65.00
2017-06-24T23:19:14.562Z,65.90
2017-06-24T23:21:42.245Z,65.40
2017-06-24T23:24:10.239Z,65.60
2017-06-24T23:26:38.014Z,66.30
2017-06-24T23:29:05.720Z,66.00
2017-06-24T23:31:33.913Z,66.30
2017-06-24T23:34:01.773Z,66.00
2017-06-24T23:36:29.501Z,66.80
2017-06-24T23:38:57.374Z,66.50
2017-06-24T23:41:25.157Z,67.30
2017-06-24T23:43:52.784Z,67.20
2017-06-24T23:46:20.933Z,67.20
2017-06-24T23:48:48.644Z,66.50
2017-06-24T23:51:16.355Z,65.60
2017-06-24T23:53:44.127Z,65.00
2017-06-24T23:56:11.822Z,64.70
2017-06-24T23:58:39.497Z,64.10
